createdAt,value
2022-08-19T00:00:11.816Z,21.06
2022-08-19T00:02:59.784Z,21.07
2022-08-19T00:05:27.751Z,21.06
2022-08-19T00:07:55.587Z,21.04
2022-08-19T00:10:25.608Z,21.03
2022-08-19T00:12:53.921Z,21.03
2022-08-19T00:15:23.024Z,21.03
2022-08-19T00:17:51.337Z,21.01
2022-08-19T00:20:22.051Z,21.00
2022-08-19T00:22:50.011Z,20.99
2022-08-19T00:25:18.179Z,20.98
2022-08-19T00:28:00.247Z,20.96
2022-08-19T00:30:31.390Z,20.92
2022-08-19T00:32:59.696Z,20.89
2022-08-19T00:35:28.433Z,20.86
2022-08-19T00:37:57.568Z,20.83
2022-08-19T00:40:26.183Z,20.81
2022-08-19T00:42:55.043Z,20.78
2022-08-19T00:45:29.259Z,20.74
2022-08-19T00:47:57.565Z,20.69
2022-08-19T00:50:25.764Z,20.66
2022-08-19T00:52:54.800Z,20.58
2022-08-19T00:55:26.669Z,20.61
2022-08-19T00:58:00.637Z,20.55
2022-08-19T01:00:29.558Z,20.59
2022-08-19T01:02:57.757Z,20.55
2022-08-19T01:05:30.001Z,20.52
2022-08-19T01:08:01.759Z,20.49
2022-08-19T01:10:40.442Z,20.45
2022-08-19T01:13:08.907Z,20.41
2022-08-19T01:15:44.965Z,20.37
2022-08-19T01:18:16.309Z,20.35
2022-08-19T01:20:44.616Z,20.32
2022-08-19T01:23:13.828Z,20.29
2022-08-19T01:25:52.404Z,20.27
2022-08-19T01:28:40.030Z,20.25
2022-08-19T01:31:27.019Z,20.23
2022-08-19T01:33:57.775Z,20.21
2022-08-19T01:36:27.161Z,20.12
2022-08-19T01:38:56.377Z,20.19
2022-08-19T01:41:24.688Z,20.19
2022-08-19T01:44:13.720Z,20.18
2022-08-19T01:46:43.516Z,20.17
2022-08-19T01:49:11.757Z,20.15
2022-08-19T01:51:40.578Z,20.13
2022-08-19T01:54:22.888Z,20.11
2022-08-19T01:57:02.618Z,20.10
2022-08-19T01:59:32.288Z,20.09
2022-08-19T02:02:00.302Z,20.07
2022-08-19T02:04:28.241Z,20.06
2022-08-19T02:06:56.277Z,20.05
2022-08-19T02:09:24.196Z,20.04
2022-08-19T02:11:52.490Z,20.03
2022-08-19T02:14:20.441Z,20.03
2022-08-19T02:16:48.903Z,20.03
2022-08-19T02:19:16.833Z,20.02
2022-08-19T02:21:45.056Z,20.02
2022-08-19T03:49:01.898Z,19.76
2022-08-19T03:51:33.987Z,19.76
2022-08-19T03:54:05.752Z,19.76
2022-08-19T03:56:36.319Z,19.78
2022-08-19T03:59:06.546Z,19.78
2022-08-19T04:01:36.413Z,19.79
2022-08-19T04:04:04.983Z,19.81
2022-08-19T04:06:36.296Z,19.83
2022-08-19T04:09:12.118Z,19.85
2022-08-19T04:11:45.102Z,19.87
2022-08-19T04:14:19.595Z,19.89
2022-08-19T04:16:49.216Z,19.92
2022-08-19T04:19:18.521Z,19.94
2022-08-19T04:21:51.416Z,19.97
2022-08-19T04:24:20.406Z,20.00
2022-08-19T04:26:49.247Z,20.02
2022-08-19T04:29:26.366Z,20.06
2022-08-19T04:31:56.664Z,20.09
2022-08-19T04:34:27.293Z,20.12
2022-08-19T04:36:57.140Z,20.17
2022-08-19T04:39:48.502Z,20.20
2022-08-19T04:42:38.463Z,20.25
2022-08-19T04:45:15.311Z,20.29
2022-08-19T04:47:48.282Z,20.33
2022-08-19T04:50:27.799Z,20.36
2022-08-19T04:52:57.513Z,20.40
2022-08-19T04:55:28.949Z,20.26
2022-08-19T04:57:56.864Z,20.46
2022-08-19T05:00:24.946Z,20.50
2022-08-19T05:02:52.967Z,20.53
2022-08-19T05:05:21.954Z,20.56
2022-08-19T05:07:49.887Z,20.60
2022-08-19T05:10:18.650Z,20.63
2022-08-19T05:12:46.811Z,20.67
2022-08-19T05:15:14.898Z,20.71
2022-08-19T05:18:02.832Z,20.76
2022-08-19T05:20:49.769Z,20.83
2022-08-19T05:23:22.167Z,20.92
2022-08-19T05:25:51.727Z,21.00
2022-08-19T05:28:21.490Z,21.07
2022-08-19T05:30:51.990Z,21.14
2022-08-19T05:33:20.399Z,21.22
2022-08-19T05:35:50.505Z,21.30
2022-08-19T05:38:18.990Z,21.39
2022-08-19T05:40:49.271Z,21.47
2022-08-19T05:43:17.818Z,21.54
2022-08-19T05:45:45.734Z,21.62
2022-08-19T05:48:14.355Z,21.68
2022-08-19T05:50:43.089Z,21.77
2022-08-19T05:53:11.130Z,21.85
2022-08-19T05:55:42.298Z,21.94
2022-08-19T05:58:11.303Z,22.06
2022-08-19T06:00:39.225Z,22.21
2022-08-19T06:03:11.392Z,22.33
2022-08-19T06:05:44.808Z,22.46
2022-08-19T06:08:33.767Z,22.55
2022-08-19T06:11:21.073Z,22.61
2022-08-19T06:13:59.717Z,22.66
2022-08-19T06:16:30.182Z,22.54
2022-08-19T06:19:01.611Z,22.74
2022-08-19T06:21:30.985Z,22.79
2022-08-19T06:23:59.767Z,22.85
2022-08-19T06:26:28.714Z,22.90
2022-08-19T06:28:56.728Z,22.96
2022-08-19T06:31:28.058Z,23.04
2022-08-19T06:33:56.302Z,23.08
2022-08-19T06:36:31.132Z,23.25
2022-08-19T06:39:00.135Z,23.34
2022-08-19T06:41:28.703Z,23.47
2022-08-19T06:43:57.426Z,23.59
2022-08-19T06:46:27.506Z,23.74
2022-08-19T06:48:55.937Z,23.88
2022-08-19T06:51:24.954Z,24.02
2022-08-19T06:53:55.684Z,24.14
2022-08-19T06:56:35.828Z,24.27
2022-08-19T06:59:07.146Z,24.40
2022-08-19T07:01:40.519Z,24.53
2022-08-19T07:04:12.111Z,24.63
2022-08-19T07:06:44.226Z,24.73
2022-08-19T07:09:18.367Z,24.82
2022-08-19T07:11:49.197Z,24.90
2022-08-19T07:14:20.291Z,24.98
2022-08-19T07:16:51.374Z,25.07
2022-08-19T07:19:20.570Z,25.17
2022-08-19T07:21:53.652Z,25.25
2022-08-19T07:24:26.226Z,25.35
2022-08-19T07:26:56.719Z,25.43
2022-08-19T07:29:25.789Z,25.43
2022-08-19T07:31:57.918Z,25.57
2022-08-19T07:34:30.424Z,25.62
2022-08-19T07:36:58.998Z,25.69
2022-08-19T07:39:30.540Z,25.74
2022-08-19T07:42:01.290Z,25.80
2022-08-19T07:44:29.508Z,25.86
2022-08-19T07:47:01.010Z,25.92
2022-08-19T07:49:29.506Z,26.01
2022-08-19T07:52:02.438Z,26.10
2022-08-19T07:54:35.342Z,26.20
2022-08-19T07:57:04.981Z,26.30
2022-08-19T07:59:32.885Z,26.41
2022-08-19T08:02:01.644Z,26.51
2022-08-19T08:04:49.819Z,26.62
2022-08-19T08:07:36.885Z,26.74
2022-08-19T08:10:20.835Z,26.85
2022-08-19T08:13:09.383Z,26.98
2022-08-19T08:15:42.872Z,27.08
2022-08-19T08:18:15.141Z,27.18
2022-08-19T08:20:43.248Z,27.27
2022-08-19T08:23:23.570Z,27.35
2022-08-19T08:25:53.490Z,27.43
2022-08-19T08:28:22.031Z,27.51
2022-08-19T08:30:51.626Z,27.59
2022-08-19T08:33:34.090Z,27.69
2022-08-19T08:36:06.175Z,27.77
2022-08-19T08:38:42.746Z,27.86
2022-08-19T08:41:38.490Z,27.96
2022-08-19T08:44:07.127Z,28.07
2022-08-19T08:46:52.772Z,28.13
2022-08-19T08:49:47.869Z,28.27
2022-08-19T08:52:33.319Z,28.37
2022-08-19T08:55:10.114Z,28.49
2022-08-19T08:57:56.181Z,28.60
2022-08-19T09:00:29.924Z,28.68
2022-08-19T09:03:16.451Z,28.77
2022-08-19T09:06:03.868Z,28.86
2022-08-19T09:08:41.329Z,28.94
2022-08-19T09:11:42.064Z,28.98
2022-08-19T09:14:51.748Z,29.02
2022-08-19T09:17:36.318Z,29.08
2022-08-19T09:20:15.688Z,29.14
2022-08-19T09:22:47.698Z,29.23
2022-08-19T09:25:26.702Z,29.31
2022-08-19T09:28:02.733Z,29.41
2022-08-19T09:30:42.912Z,29.53
2022-08-19T09:33:10.783Z,29.62
2022-08-19T09:35:49.798Z,29.66
2022-08-19T09:38:22.643Z,29.71
2022-08-19T09:40:51.040Z,29.77
2022-08-19T09:43:32.952Z,29.82
2022-08-19T09:46:06.674Z,29.85
2022-08-19T09:48:37.236Z,29.87
2022-08-19T09:51:17.694Z,29.90
2022-08-19T09:53:46.797Z,29.92
2022-08-19T09:56:16.204Z,29.93
2022-08-19T09:58:48.310Z,29.95
2022-08-19T10:01:21.840Z,29.96
2022-08-19T10:03:55.885Z,30.06
2022-08-19T10:06:43.873Z,30.09
2022-08-19T10:09:18.007Z,30.11
2022-08-19T10:12:04.065Z,30.06
2022-08-19T10:14:32.767Z,30.15
2022-08-19T10:17:04.696Z,30.20
2022-08-19T10:19:55.405Z,30.25
2022-08-19T10:22:25.600Z,30.30
2022-08-19T10:24:54.271Z,30.14
2022-08-19T10:27:22.825Z,30.32
2022-08-19T10:29:51.212Z,30.32
2022-08-19T10:32:19.465Z,30.33
2022-08-19T10:35:09.366Z,30.38
2022-08-19T10:37:57.544Z,30.39
2022-08-19T10:40:29.095Z,30.35
2022-08-19T10:42:57.177Z,30.34
2022-08-19T10:45:29.852Z,30.37
2022-08-19T10:48:01.096Z,30.38
2022-08-19T10:50:53.379Z,30.37
2022-08-19T10:53:26.773Z,30.37
2022-08-19T10:56:14.354Z,30.38
2022-08-19T10:59:10.610Z,30.39
2022-08-19T11:01:46.947Z,30.41
2022-08-19T11:04:28.884Z,30.41
2022-08-19T11:07:07.882Z,30.45
2022-08-19T11:09:40.963Z,30.47
2022-08-19T11:12:25.789Z,30.47
2022-08-19T11:15:18.510Z,30.47
2022-08-19T11:18:13.358Z,30.48
2022-08-19T11:21:22.341Z,30.53
2022-08-19T11:23:53.725Z,30.57
2022-08-19T11:26:22.917Z,30.60
2022-08-19T11:28:55.704Z,30.63
2022-08-19T11:31:34.167Z,30.68
2022-08-19T11:34:04.853Z,30.72
2022-08-19T11:36:48.337Z,30.76
2022-08-19T11:39:19.060Z,30.79
2022-08-19T11:41:47.808Z,30.79
2022-08-19T11:44:16.438Z,30.81
2022-08-19T11:46:47.700Z,30.83
2022-08-19T11:49:20.142Z,30.87
2022-08-19T11:51:51.106Z,30.88
2022-08-19T11:54:19.247Z,30.88
2022-08-19T11:57:18.075Z,30.88
2022-08-19T12:00:22.785Z,30.88
2022-08-19T12:02:50.896Z,30.91
2022-08-19T12:05:18.886Z,30.92
2022-08-19T12:08:09.327Z,30.90
2022-08-19T12:10:58.481Z,30.87
2022-08-19T12:13:26.734Z,30.87
2022-08-19T12:15:55.179Z,30.89
2022-08-19T12:18:23.921Z,30.93
2022-08-19T12:20:53.608Z,30.95
2022-08-19T12:23:22.122Z,30.96
2022-08-19T12:25:52.630Z,30.99
2022-08-19T12:28:23.948Z,31.00
2022-08-19T12:30:52.438Z,31.01
2022-08-19T12:33:25.129Z,31.02
2022-08-19T12:35:53.504Z,31.03
2022-08-19T12:38:24.718Z,31.06
2022-08-19T12:40:56.007Z,31.09
2022-08-19T12:43:26.355Z,31.13
2022-08-19T12:45:55.349Z,31.18
2022-08-19T12:48:33.674Z,31.22
2022-08-19T12:51:12.111Z,31.17
2022-08-19T12:53:40.925Z,31.28
2022-08-19T12:56:12.582Z,31.31
2022-08-19T12:58:50.318Z,31.33
2022-08-19T13:01:23.149Z,31.35
2022-08-19T13:03:53.656Z,31.37
2022-08-19T13:06:22.627Z,31.37
2022-08-19T13:08:51.096Z,31.38
2022-08-19T13:11:21.958Z,31.37
2022-08-19T13:13:52.162Z,31.37
2022-08-19T13:16:21.426Z,31.37
2022-08-19T13:18:53.061Z,31.36
2022-08-19T13:21:23.940Z,31.35
2022-08-19T13:23:53.436Z,31.34
2022-08-19T13:26:22.430Z,31.34
2022-08-19T13:29:09.407Z,31.34
2022-08-19T13:31:59.437Z,31.32
2022-08-19T13:34:35.120Z,31.30
2022-08-19T13:37:04.709Z,31.30
2022-08-19T13:39:34.144Z,31.30
2022-08-19T13:42:03.490Z,31.30
2022-08-19T13:44:33.025Z,31.32
2022-08-19T13:47:08.244Z,31.30
2022-08-19T13:49:37.474Z,31.26
2022-08-19T13:52:07.019Z,31.35
2022-08-19T13:54:34.846Z,31.30
2022-08-19T13:57:02.785Z,31.38
2022-08-19T13:59:30.710Z,31.43
2022-08-19T14:02:00.566Z,31.44
2022-08-19T14:04:28.887Z,31.46
2022-08-19T14:06:56.751Z,31.48
2022-08-19T14:09:24.622Z,31.51
2022-08-19T14:11:52.591Z,31.52
2022-08-19T14:14:20.602Z,31.54
2022-08-19T14:16:49.514Z,31.56
2022-08-19T14:19:17.366Z,31.57
2022-08-19T14:21:45.229Z,31.58
2022-08-19T14:24:13.350Z,31.57
2022-08-19T14:26:41.376Z,31.58
2022-08-19T14:29:09.131Z,31.50
2022-08-19T14:31:37.034Z,31.57
2022-08-19T14:34:05.240Z,31.57
2022-08-19T14:36:39.005Z,31.58
2022-08-19T14:39:07.381Z,31.51
2022-08-19T14:41:35.411Z,31.60
2022-08-19T14:44:03.295Z,31.59
2022-08-19T14:46:31.286Z,31.62
2022-08-19T14:48:59.924Z,31.62
2022-08-19T14:51:28.227Z,31.64
2022-08-19T14:53:56.589Z,31.65
2022-08-19T14:56:27.822Z,31.65
2022-08-19T14:58:56.383Z,31.66
2022-08-19T15:01:24.645Z,31.66
2022-08-19T15:04:12.660Z,31.65
2022-08-19T15:06:41.090Z,31.65
2022-08-19T15:09:10.208Z,31.65
2022-08-19T15:11:39.497Z,31.64
2022-08-19T15:14:08.084Z,31.62
2022-08-19T15:16:36.881Z,31.61
2022-08-19T15:19:07.580Z,31.59
2022-08-19T15:21:35.973Z,31.56
2022-08-19T15:24:06.104Z,31.54
2022-08-19T15:26:33.994Z,31.51
2022-08-19T15:29:03.404Z,31.47
2022-08-19T15:31:38.323Z,31.43
2022-08-19T15:34:07.865Z,31.39
2022-08-19T15:36:37.170Z,31.36
2022-08-19T15:39:07.688Z,31.31
2022-08-19T15:41:37.261Z,31.29
2022-08-19T15:44:10.277Z,31.26
2022-08-19T15:46:40.994Z,31.25
2022-08-19T15:49:10.484Z,31.23
2022-08-19T15:51:41.294Z,31.19
2022-08-19T15:54:13.050Z,31.17
2022-08-19T15:56:59.735Z,31.15
2022-08-19T15:59:47.766Z,31.13
2022-08-19T16:02:37.387Z,31.08
2022-08-19T16:05:27.588Z,31.04
2022-08-19T16:07:56.966Z,30.99
2022-08-19T16:10:27.256Z,30.94
2022-08-19T16:12:57.980Z,30.88
2022-08-19T16:15:28.027Z,30.83
2022-08-19T16:17:58.056Z,30.77
2022-08-19T16:20:28.088Z,30.70
2022-08-19T16:22:58.589Z,30.57
2022-08-19T16:25:29.458Z,30.59
2022-08-19T16:28:07.719Z,30.46
2022-08-19T16:30:39.123Z,30.49
2022-08-19T16:33:08.530Z,30.44
2022-08-19T16:35:37.023Z,30.40
2022-08-19T16:38:07.231Z,30.34
2022-08-19T16:40:35.946Z,30.28
2022-08-19T16:43:04.818Z,30.23
2022-08-19T16:45:32.973Z,30.16
2022-08-19T16:48:00.847Z,30.09
2022-08-19T16:50:48.385Z,30.00
2022-08-19T16:53:25.800Z,29.91
2022-08-19T16:55:58.523Z,29.82
2022-08-19T16:58:29.626Z,29.74
2022-08-19T17:01:03.236Z,29.65
2022-08-19T17:03:35.995Z,29.49
2022-08-19T17:06:26.154Z,29.50
2022-08-19T17:08:58.858Z,29.43
2022-08-19T17:11:28.716Z,29.35
2022-08-19T17:13:59.107Z,29.27
2022-08-19T17:16:29.788Z,29.21
2022-08-19T17:18:59.854Z,29.13
2022-08-19T17:21:32.508Z,28.99
2022-08-19T17:24:01.996Z,29.01
2022-08-19T17:26:30.630Z,28.96
2022-08-19T17:29:00.426Z,28.80
2022-08-19T17:31:33.744Z,28.83
2022-08-19T17:34:03.607Z,28.75
2022-08-19T17:36:34.234Z,28.69
2022-08-19T17:39:05.060Z,28.63
2022-08-19T17:41:34.552Z,28.59
2022-08-19T17:44:03.980Z,28.53
2022-08-19T17:46:32.563Z,28.48
2022-08-19T17:49:00.960Z,28.42
2022-08-19T17:51:36.088Z,28.37
2022-08-19T17:54:06.808Z,28.32
2022-08-19T17:56:34.745Z,28.25
2022-08-19T17:59:02.782Z,28.19
2022-08-19T18:01:44.018Z,28.13
2022-08-19T18:04:25.300Z,28.06
2022-08-19T18:06:55.833Z,28.01
2022-08-19T18:09:30.043Z,27.96
2022-08-19T18:12:13.296Z,27.92
2022-08-19T18:14:46.293Z,27.86
2022-08-19T18:17:18.284Z,27.81
2022-08-19T18:19:47.827Z,27.77
2022-08-19T18:22:29.920Z,27.61
2022-08-19T18:24:58.709Z,27.67
2022-08-19T18:27:27.853Z,27.64
2022-08-19T18:29:59.587Z,27.59
2022-08-19T18:32:34.088Z,27.55
2022-08-19T18:35:05.033Z,27.50
2022-08-19T18:37:33.048Z,27.47
2022-08-19T18:40:30.172Z,27.42
2022-08-19T18:43:17.008Z,27.37
2022-08-19T18:46:03.877Z,27.31
2022-08-19T18:48:55.101Z,27.26
2022-08-19T18:51:28.152Z,27.20
2022-08-19T18:53:58.988Z,27.11
2022-08-19T18:56:32.576Z,27.12
2022-08-19T18:59:03.969Z,27.10
2022-08-19T19:01:39.910Z,27.06
2022-08-19T19:04:12.309Z,27.03
2022-08-19T19:06:42.795Z,27.00
2022-08-19T19:09:19.678Z,26.96
2022-08-19T19:12:01.685Z,26.93
2022-08-19T19:14:49.110Z,26.89
2022-08-19T19:17:18.419Z,26.85
2022-08-19T19:19:50.126Z,26.82
2022-08-19T19:22:21.924Z,26.78
2022-08-19T19:24:50.938Z,26.75
2022-08-19T19:27:23.549Z,26.72
2022-08-19T19:29:56.929Z,26.69
2022-08-19T19:32:36.928Z,26.64
2022-08-19T19:35:10.602Z,26.47
2022-08-19T19:37:38.718Z,26.59
2022-08-19T19:40:07.425Z,26.56
2022-08-19T19:42:35.414Z,26.54
2022-08-19T19:45:03.900Z,26.52
2022-08-19T19:47:32.091Z,26.49
2022-08-19T19:50:16.407Z,26.46
2022-08-19T19:52:50.979Z,26.43
2022-08-19T19:55:20.172Z,26.40
2022-08-19T19:57:49.801Z,26.36
2022-08-19T20:00:19.293Z,26.33
2022-08-19T20:02:50.379Z,26.29
2022-08-19T20:05:21.722Z,26.23
2022-08-19T20:08:11.655Z,26.20
2022-08-19T20:10:42.577Z,26.16
2022-08-19T20:13:11.160Z,26.11
2022-08-19T20:15:43.664Z,26.07
2022-08-19T20:18:14.671Z,26.03
2022-08-19T20:20:43.744Z,25.98
2022-08-19T20:23:11.633Z,25.92
2022-08-19T20:25:39.693Z,25.88
2022-08-19T20:28:09.989Z,25.85
2022-08-19T20:30:43.761Z,25.80
2022-08-19T20:33:15.559Z,25.75
2022-08-19T20:35:45.733Z,25.65
2022-08-19T20:38:13.852Z,25.68
2022-08-19T20:40:41.911Z,25.65
2022-08-19T20:43:12.189Z,25.61
2022-08-19T20:45:40.635Z,25.58
2022-08-19T20:48:10.606Z,25.56
2022-08-19T20:50:39.735Z,25.54
2022-08-19T20:53:17.637Z,25.51
2022-08-19T20:55:52.024Z,25.49
2022-08-19T20:58:23.078Z,25.45
2022-08-19T21:00:55.933Z,25.37
2022-08-19T21:03:27.786Z,25.42
2022-08-19T21:05:57.142Z,25.40
2022-08-19T21:08:27.812Z,25.38
2022-08-19T21:10:57.022Z,25.36
2022-08-19T21:13:26.095Z,25.34
2022-08-19T21:15:54.310Z,25.31
2022-08-19T21:18:23.784Z,25.27
2022-08-19T21:20:52.030Z,25.27
2022-08-19T21:23:27.351Z,25.24
2022-08-19T21:25:58.410Z,25.23
2022-08-19T21:28:34.275Z,25.21
2022-08-19T21:31:10.610Z,25.18
2022-08-19T21:33:39.019Z,25.15
2022-08-19T21:36:07.612Z,25.03
2022-08-19T21:38:36.464Z,25.11
2022-08-19T21:41:06.544Z,25.09
2022-08-19T21:43:36.564Z,25.06
2022-08-19T21:46:05.593Z,25.04
2022-08-19T21:48:33.869Z,25.01
2022-08-19T21:51:01.711Z,24.98
2022-08-19T21:53:34.158Z,24.95
2022-08-19T21:56:04.073Z,24.92
2022-08-19T21:58:32.245Z,24.90
2022-08-19T22:01:02.183Z,24.88
2022-08-19T22:03:31.138Z,24.85
2022-08-19T22:05:59.125Z,24.82
2022-08-19T22:08:27.415Z,24.80
2022-08-19T22:10:55.437Z,24.77
2022-08-19T22:13:24.850Z,24.74
2022-08-19T22:15:55.183Z,24.72
2022-08-19T22:18:23.081Z,24.69
2022-08-19T22:20:51.365Z,24.65
2022-08-19T22:23:19.510Z,24.62
2022-08-19T22:25:48.887Z,24.59
2022-08-19T22:28:18.971Z,24.58
2022-08-19T22:30:56.404Z,24.56
2022-08-19T22:33:26.363Z,24.54
2022-08-19T22:35:54.220Z,24.53
2022-08-19T22:38:23.159Z,24.52
2022-08-19T22:40:52.753Z,24.50
2022-08-19T22:43:24.889Z,24.48
2022-08-19T22:45:55.264Z,24.47
2022-08-19T22:48:26.065Z,24.46
2022-08-19T22:51:13.933Z,24.45
2022-08-19T22:53:45.741Z,24.44
2022-08-19T22:56:17.611Z,24.44
2022-08-19T22:58:47.235Z,24.44
2022-08-19T23:01:24.878Z,24.40
2022-08-19T23:04:03.619Z,24.37
2022-08-19T23:06:34.644Z,24.35
2022-08-19T23:09:07.308Z,24.33
2022-08-19T23:11:41.953Z,24.31
2022-08-19T23:14:11.454Z,24.27
2022-08-19T23:16:41.689Z,24.25
2022-08-19T23:19:10.697Z,24.21
2022-08-19T23:21:41.589Z,24.21
2022-08-19T23:24:10.132Z,24.10
2022-08-19T23:26:38.530Z,24.17
2022-08-19T23:29:25.418Z,24.16
2022-08-19T23:31:53.760Z,24.15
2022-08-19T23:34:22.255Z,24.13
2022-08-19T23:36:50.998Z,24.12
2022-08-19T23:39:19.534Z,24.11
2022-08-19T23:41:47.966Z,24.08
2022-08-19T23:44:15.803Z,24.06
2022-08-19T23:46:54.779Z,24.05
2022-08-19T23:49:25.223Z,24.00
2022-08-19T23:51:54.857Z,23.95
2022-08-19T23:54:32.024Z,23.91
2022-08-19T23:57:13.204Z,23.87
2022-08-19T23:59:45.774Z,23.82
